sensor_id;sensor_type;location;lat;lon;timestamp;P1;durP1;ratioP1;P2;durP2;ratioP2
17917;SDS011;9084;50.956;3.106;2023-01-24T00:00:00;33.40;;;25.03;;
17917;SDS011;9084;50.956;3.106;2023-01-24T00:02:26;21.17;;;17.50;;
17917;SDS011;9084;50.956;3.106;2023-01-24T00:04:54;20.20;;;17.17;;
17917;SDS011;9084;50.956;3.106;2023-01-24T00:07:19;18.87;;;15.97;;
17917;SDS011;9084;50.956;3.106;2023-01-24T00:09:45;17.47;;;14.40;;
17917;SDS011;9084;50.956;3.106;2023-01-24T00:12:11;14.83;;;13.23;;
17917;SDS011;9084;50.956;3.106;2023-01-24T00:14:38;15.33;;;13.70;;
17917;SDS011;9084;50.956;3.106;2023-01-24T00:17:05;17.60;;;15.23;;
17917;SDS011;9084;50.956;3.106;2023-01-24T00:19:32;16.00;;;14.23;;
17917;SDS011;9084;50.956;3.106;2023-01-24T00:21:59;16.63;;;14.43;;
17917;SDS011;9084;50.956;3.106;2023-01-24T00:24:27;17.07;;;14.43;;
17917;SDS011;9084;50.956;3.106;2023-01-24T00:27:00;16.23;;;13.67;;
17917;SDS011;9084;50.956;3.106;2023-01-24T00:29:29;17.63;;;13.47;;
17917;SDS011;9084;50.956;3.106;2023-01-24T00:31:55;16.47;;;14.30;;
17917;SDS011;9084;50.956;3.106;2023-01-24T00:34:21;15.87;;;13.73;;
17917;SDS011;9084;50.956;3.106;2023-01-24T00:36:47;15.93;;;13.67;;
17917;SDS011;9084;50.956;3.106;2023-01-24T00:39:12;16.83;;;14.33;;
17917;SDS011;9084;50.956;3.106;2023-01-24T00:41:43;16.50;;;14.63;;
17917;SDS011;9084;50.956;3.106;2023-01-24T00:44:08;17.27;;;14.10;;
17917;SDS011;9084;50.956;3.106;2023-01-24T00:46:35;15.07;;;13.10;;
17917;SDS011;9084;50.956;3.106;2023-01-24T00:49:01;17.00;;;14.57;;
17917;SDS011;9084;50.956;3.106;2023-01-24T00:51:27;14.33;;;12.83;;
17917;SDS011;9084;50.956;3.106;2023-01-24T00:53:53;17.47;;;13.73;;
17917;SDS011;9084;50.956;3.106;2023-01-24T00:56:21;16.60;;;14.27;;
17917;SDS011;9084;50.956;3.106;2023-01-24T00:58:49;16.10;;;13.47;;
17917;SDS011;9084;50.956;3.106;2023-01-24T01:01:14;15.63;;;13.10;;
17917;SDS011;9084;50.956;3.106;2023-01-24T01:03:40;16.13;;;13.73;;
17917;SDS011;9084;50.956;3.106;2023-01-24T01:06:07;16.27;;;14.03;;
17917;SDS011;9084;50.956;3.106;2023-01-24T01:08:37;16.37;;;14.57;;
17917;SDS011;9084;50.956;3.106;2023-01-24T01:11:03;16.37;;;14.10;;
17917;SDS011;9084;50.956;3.106;2023-01-24T01:13:30;16.90;;;14.00;;
17917;SDS011;9084;50.956;3.106;2023-01-24T01:16:03;15.37;;;13.10;;
17917;SDS011;9084;50.956;3.106;2023-01-24T01:18:32;16.23;;;13.83;;
17917;SDS011;9084;50.956;3.106;2023-01-24T01:20:58;16.07;;;14.00;;
17917;SDS011;9084;50.956;3.106;2023-01-24T01:23:25;18.03;;;15.17;;
17917;SDS011;9084;50.956;3.106;2023-01-24T01:25:50;16.20;;;14.50;;
17917;SDS011;9084;50.956;3.106;2023-01-24T01:28:19;16.80;;;15.00;;
17917;SDS011;9084;50.956;3.106;2023-01-24T01:30:48;18.87;;;15.47;;
17917;SDS011;9084;50.956;3.106;2023-01-24T01:33:17;17.60;;;15.33;;
17917;SDS011;9084;50.956;3.106;2023-01-24T01:35:46;17.00;;;14.67;;
17917;SDS011;9084;50.956;3.106;2023-01-24T01:38:18;17.07;;;14.50;;
17917;SDS011;9084;50.956;3.106;2023-01-24T01:40:44;17.33;;;14.07;;
17917;SDS011;9084;50.956;3.106;2023-01-24T01:43:15;15.83;;;13.67;;
17917;SDS011;9084;50.956;3.106;2023-01-24T01:48:15;16.10;;;14.40;;
17917;SDS011;9084;50.956;3.106;2023-01-24T01:51:04;16.70;;;14.27;;
17917;SDS011;9084;50.956;3.106;2023-01-24T01:53:46;17.97;;;15.13;;
17917;SDS011;9084;50.956;3.106;2023-01-24T01:56:31;17.43;;;14.43;;
17917;SDS011;9084;50.956;3.106;2023-01-24T01:59:02;18.10;;;14.63;;
17917;SDS011;9084;50.956;3.106;2023-01-24T02:01:32;18.00;;;13.83;;
17917;SDS011;9084;50.956;3.106;2023-01-24T02:04:04;16.60;;;14.90;;
17917;SDS011;9084;50.956;3.106;2023-01-24T02:09:34;16.40;;;14.37;;
17917;SDS011;9084;50.956;3.106;2023-01-24T02:12:05;18.43;;;16.53;;
17917;SDS011;9084;50.956;3.106;2023-01-24T02:14:35;17.17;;;14.67;;
17917;SDS011;9084;50.956;3.106;2023-01-24T02:17:24;16.33;;;14.47;;
17917;SDS011;9084;50.956;3.106;2023-01-24T02:19:54;14.93;;;13.27;;
17917;SDS011;9084;50.956;3.106;2023-01-24T02:25:22;17.13;;;15.43;;
17917;SDS011;9084;50.956;3.106;2023-01-24T02:27:51;17.47;;;15.67;;
17917;SDS011;9084;50.956;3.106;2023-01-24T02:30:18;15.33;;;13.83;;
17917;SDS011;9084;50.956;3.106;2023-01-24T02:32:43;15.43;;;13.03;;
17917;SDS011;9084;50.956;3.106;2023-01-24T02:35:21;18.93;;;13.63;;
17917;SDS011;9084;50.956;3.106;2023-01-24T02:37:49;15.73;;;13.47;;
17917;SDS011;9084;50.956;3.106;2023-01-24T02:40:15;16.03;;;13.27;;
17917;SDS011;9084;50.956;3.106;2023-01-24T02:42:41;16.77;;;15.07;;
17917;SDS011;9084;50.956;3.106;2023-01-24T02:45:10;17.20;;;15.40;;
17917;SDS011;9084;50.956;3.106;2023-01-24T02:47:45;17.43;;;15.67;;
17917;SDS011;9084;50.956;3.106;2023-01-24T02:50:14;15.23;;;13.13;;
17917;SDS011;9084;50.956;3.106;2023-01-24T02:52:41;16.13;;;13.80;;
17917;SDS011;9084;50.956;3.106;2023-01-24T02:55:24;15.47;;;13.80;;
17917;SDS011;9084;50.956;3.106;2023-01-24T02:57:51;15.77;;;13.87;;
17917;SDS011;9084;50.956;3.106;2023-01-24T03:00:41;17.07;;;15.37;;
17917;SDS011;9084;50.956;3.106;2023-01-24T03:03:08;16.20;;;14.50;;
17917;SDS011;9084;50.956;3.106;2023-01-24T03:05:34;18.23;;;16.47;;
17917;SDS011;9084;50.956;3.106;2023-01-24T03:08:19;17.10;;;15.40;;
17917;SDS011;9084;50.956;3.106;2023-01-24T03:10:45;15.37;;;13.37;;
17917;SDS011;9084;50.956;3.106;2023-01-24T03:13:11;14.33;;;12.83;;
17917;SDS011;9084;50.956;3.106;2023-01-24T03:15:58;15.97;;;13.77;;
17917;SDS011;9084;50.956;3.106;2023-01-24T03:18:43;19.33;;;17.43;;
17917;SDS011;9084;50.956;3.106;2023-01-24T03:21:27;18.90;;;17.00;;
17917;SDS011;9084;50.956;3.106;2023-01-24T03:24:11;18.93;;;16.93;;
17917;SDS011;9084;50.956;3.106;2023-01-24T03:26:55;17.83;;;14.87;;
17917;SDS011;9084;50.956;3.106;2023-01-24T03:29:39;18.73;;;16.83;;
17917;SDS011;9084;50.956;3.106;2023-01-24T03:32:23;18.73;;;16.83;;
17917;SDS011;9084;50.956;3.106;2023-01-24T03:35:07;18.10;;;15.53;;
17917;SDS011;9084;50.956;3.106;2023-01-24T03:37:33;19.30;;;16.10;;
17917;SDS011;9084;50.956;3.106;2023-01-24T03:40:17;20.47;;;18.37;;
17917;SDS011;9084;50.956;3.106;2023-01-24T03:42:43;18.77;;;15.90;;
17917;SDS011;9084;50.956;3.106;2023-01-24T03:47:45;20.50;;;18.40;;
17917;SDS011;9084;50.956;3.106;2023-01-24T03:50:26;20.23;;;18.23;;
17917;SDS011;9084;50.956;3.106;2023-01-24T03:53:21;20.43;;;18.33;;
17917;SDS011;9084;50.956;3.106;2023-01-24T03:55:53;22.83;;;19.57;;
17917;SDS011;9084;50.956;3.106;2023-01-24T03:58:24;22.57;;;20.37;;
17917;SDS011;9084;50.956;3.106;2023-01-24T04:00:56;21.90;;;19.70;;
17917;SDS011;9084;50.956;3.106;2023-01-24T04:03:22;21.43;;;19.23;;
17917;SDS011;9084;50.956;3.106;2023-01-24T04:05:51;20.27;;;18.10;;
17917;SDS011;9084;50.956;3.106;2023-01-24T04:08:17;22.43;;;20.03;;
17917;SDS011;9084;50.956;3.106;2023-01-24T04:10:46;21.50;;;18.27;;
17917;SDS011;9084;50.956;3.106;2023-01-24T04:13:11;18.20;;;16.30;;
17917;SDS011;9084;50.956;3.106;2023-01-24T04:15:38;17.17;;;15.27;;
17917;SDS011;9084;50.956;3.106;2023-01-24T04:18:04;17.83;;;15.80;;
17917;SDS011;9084;50.956;3.106;2023-01-24T04:20:32;21.10;;;18.63;;
17917;SDS011;9084;50.956;3.106;2023-01-24T04:23:01;20.57;;;18.43;;
17917;SDS011;9084;50.956;3.106;2023-01-24T04:25:28;18.47;;;16.50;;
17917;SDS011;9084;50.956;3.106;2023-01-24T04:27:54;21.23;;;17.87;;
17917;SDS011;9084;50.956;3.106;2023-01-24T04:30:21;22.77;;;20.27;;
17917;SDS011;9084;50.956;3.106;2023-01-24T04:32:49;25.33;;;22.10;;
17917;SDS011;9084;50.956;3.106;2023-01-24T04:35:18;25.80;;;20.53;;
17917;SDS011;9084;50.956;3.106;2023-01-24T04:37:46;25.80;;;22.07;;
17917;SDS011;9084;50.956;3.106;2023-01-24T04:40:13;23.37;;;19.97;;
17917;SDS011;9084;50.956;3.106;2023-01-24T04:42:39;22.37;;;19.40;;
17917;SDS011;9084;50.956;3.106;2023-01-24T04:45:06;22.23;;;19.27;;
17917;SDS011;9084;50.956;3.106;2023-01-24T04:47:32;23.23;;;19.93;;
17917;SDS011;9084;50.956;3.106;2023-01-24T04:49:58;24.43;;;21.93;;
17917;SDS011;9084;50.956;3.106;2023-01-24T04:52:26;23.07;;;19.87;;
17917;SDS011;9084;50.956;3.106;2023-01-24T04:54:55;26.80;;;22.10;;
17917;SDS011;9084;50.956;3.106;2023-01-24T04:57:23;27.07;;;22.20;;
17917;SDS011;9084;50.956;3.106;2023-01-24T04:59:51;29.63;;;22.57;;
17917;SDS011;9084;50.956;3.106;2023-01-24T05:02:19;26.23;;;22.03;;
17917;SDS011;9084;50.956;3.106;2023-01-24T05:04:47;24.27;;;21.67;;
17917;SDS011;9084;50.956;3.106;2023-01-24T05:07:16;25.67;;;22.87;;
17917;SDS011;9084;50.956;3.106;2023-01-24T05:09:41;25.27;;;22.57;;
17917;SDS011;9084;50.956;3.106;2023-01-24T05:12:08;24.53;;;20.70;;
17917;SDS011;9084;50.956;3.106;2023-01-24T05:14:33;24.47;;;21.03;;
17917;SDS011;9084;50.956;3.106;2023-01-24T05:16:59;25.33;;;21.53;;
17917;SDS011;9084;50.956;3.106;2023-01-24T05:19:30;25.70;;;21.50;;
17917;SDS011;9084;50.956;3.106;2023-01-24T05:21:58;26.63;;;22.63;;
17917;SDS011;9084;50.956;3.106;2023-01-24T05:24:26;27.30;;;22.70;;
17917;SDS011;9084;50.956;3.106;2023-01-24T05:26:57;28.77;;;22.23;;
17917;SDS011;9084;50.956;3.106;2023-01-24T05:29:23;67.23;;;60.17;;
17917;SDS011;9084;50.956;3.106;2023-01-24T05:31:49;60.27;;;54.33;;
17917;SDS011;9084;50.956;3.106;2023-01-24T05:34:14;31.90;;;27.60;;
17917;SDS011;9084;50.956;3.106;2023-01-24T05:36:43;34.30;;;30.43;;
17917;SDS011;9084;50.956;3.106;2023-01-24T05:39:09;36.80;;;31.43;;
17917;SDS011;9084;50.956;3.106;2023-01-24T05:41:35;26.37;;;23.03;;
17917;SDS011;9084;50.956;3.106;2023-01-24T05:44:00;26.43;;;23.13;;
17917;SDS011;9084;50.956;3.106;2023-01-24T05:46:26;35.67;;;30.40;;
17917;SDS011;9084;50.956;3.106;2023-01-24T05:48:53;27.70;;;22.97;;
17917;SDS011;9084;50.956;3.106;2023-01-24T05:51:21;26.70;;;22.40;;
17917;SDS011;9084;50.956;3.106;2023-01-24T05:53:47;28.67;;;23.87;;
17917;SDS011;9084;50.956;3.106;2023-01-24T05:56:14;28.27;;;22.60;;
17917;SDS011;9084;50.956;3.106;2023-01-24T05:58:43;36.13;;;31.43;;
17917;SDS011;9084;50.956;3.106;2023-01-24T06:01:10;29.90;;;23.10;;
17917;SDS011;9084;50.956;3.106;2023-01-24T06:03:39;31.10;;;23.57;;
17917;SDS011;9084;50.956;3.106;2023-01-24T06:06:06;30.33;;;27.17;;
17917;SDS011;9084;50.956;3.106;2023-01-24T06:08:33;26.37;;;22.33;;
17917;SDS011;9084;50.956;3.106;2023-01-24T06:11:19;29.13;;;24.20;;
17917;SDS011;9084;50.956;3.106;2023-01-24T06:13:47;30.07;;;24.40;;
17917;SDS011;9084;50.956;3.106;2023-01-24T06:16:18;27.77;;;21.43;;
17917;SDS011;9084;50.956;3.106;2023-01-24T06:18:46;27.27;;;22.40;;
17917;SDS011;9084;50.956;3.106;2023-01-24T06:23:59;29.37;;;23.30;;
17917;SDS011;9084;50.956;3.106;2023-01-24T06:26:25;27.83;;;21.80;;
17917;SDS011;9084;50.956;3.106;2023-01-24T06:28:51;26.93;;;21.37;;
17917;SDS011;9084;50.956;3.106;2023-01-24T06:40:15;22.60;;;17.70;;
17917;SDS011;9084;50.956;3.106;2023-01-24T06:42:42;23.50;;;18.77;;
17917;SDS011;9084;50.956;3.106;2023-01-24T06:45:08;21.67;;;18.70;;
17917;SDS011;9084;50.956;3.106;2023-01-24T06:47:34;23.70;;;17.97;;
17917;SDS011;9084;50.956;3.106;2023-01-24T06:50:00;20.63;;;17.63;;
17917;SDS011;9084;50.956;3.106;2023-01-24T06:52:26;23.27;;;19.07;;
17917;SDS011;9084;50.956;3.106;2023-01-24T06:54:53;22.27;;;18.17;;
17917;SDS011;9084;50.956;3.106;2023-01-24T06:57:21;19.73;;;17.33;;
17917;SDS011;9084;50.956;3.106;2023-01-24T06:59:47;20.77;;;18.17;;
17917;SDS011;9084;50.956;3.106;2023-01-24T07:02:13;18.80;;;16.80;;
17917;SDS011;9084;50.956;3.106;2023-01-24T07:04:38;21.13;;;17.67;;
17917;SDS011;9084;50.956;3.106;2023-01-24T07:07:04;22.03;;;18.53;;
17917;SDS011;9084;50.956;3.106;2023-01-24T07:09:33;19.77;;;17.67;;
17917;SDS011;9084;50.956;3.106;2023-01-24T07:12:00;19.47;;;16.87;;
17917;SDS011;9084;50.956;3.106;2023-01-24T07:14:26;19.73;;;17.03;;
17917;SDS011;9084;50.956;3.106;2023-01-24T07:16:52;20.30;;;16.87;;
17917;SDS011;9084;50.956;3.106;2023-01-24T07:19:23;19.90;;;17.80;;
17917;SDS011;9084;50.956;3.106;2023-01-24T07:21:50;20.77;;;18.20;;
17917;SDS011;9084;50.956;3.106;2023-01-24T07:24:20;20.67;;;17.90;;
17917;SDS011;9084;50.956;3.106;2023-01-24T07:26:47;20.73;;;18.57;;
17917;SDS011;9084;50.956;3.106;2023-01-24T07:29:16;19.13;;;16.10;;
17917;SDS011;9084;50.956;3.106;2023-01-24T07:31:42;19.00;;;16.20;;
17917;SDS011;9084;50.956;3.106;2023-01-24T07:34:08;17.63;;;15.53;;
17917;SDS011;9084;50.956;3.106;2023-01-24T07:36:34;18.53;;;14.60;;
17917;SDS011;9084;50.956;3.106;2023-01-24T07:38:59;19.50;;;17.07;;
17917;SDS011;9084;50.956;3.106;2023-01-24T07:41:27;17.00;;;15.07;;
17917;SDS011;9084;50.956;3.106;2023-01-24T07:43:53;17.23;;;15.37;;
17917;SDS011;9084;50.956;3.106;2023-01-24T07:46:20;17.07;;;15.17;;
17917;SDS011;9084;50.956;3.106;2023-01-24T07:48:46;16.60;;;14.77;;
17917;SDS011;9084;50.956;3.106;2023-01-24T07:51:12;16.07;;;14.33;;
17917;SDS011;9084;50.956;3.106;2023-01-24T07:53:38;16.40;;;13.60;;
17917;SDS011;9084;50.956;3.106;2023-01-24T07:56:04;17.37;;;15.00;;
17917;SDS011;9084;50.956;3.106;2023-01-24T07:58:31;17.50;;;14.80;;
17917;SDS011;9084;50.956;3.106;2023-01-24T08:00:57;18.37;;;15.23;;
17917;SDS011;9084;50.956;3.106;2023-01-24T08:03:25;16.90;;;15.13;;
17917;SDS011;9084;50.956;3.106;2023-01-24T08:05:53;18.83;;;15.87;;
17917;SDS011;9084;50.956;3.106;2023-01-24T08:08:19;18.43;;;15.07;;
17917;SDS011;9084;50.956;3.106;2023-01-24T08:10:45;17.77;;;15.67;;
17917;SDS011;9084;50.956;3.106;2023-01-24T08:13:11;17.00;;;14.77;;
17917;SDS011;9084;50.956;3.106;2023-01-24T08:15:37;18.67;;;16.53;;
17917;SDS011;9084;50.956;3.106;2023-01-24T08:18:02;18.33;;;15.80;;
17917;SDS011;9084;50.956;3.106;2023-01-24T08:20:29;18.83;;;16.93;;
17917;SDS011;9084;50.956;3.106;2023-01-24T08:22:56;18.83;;;16.93;;
17917;SDS011;9084;50.956;3.106;2023-01-24T08:25:25;18.97;;;16.13;;
17917;SDS011;9084;50.956;3.106;2023-01-24T08:27:54;17.47;;;15.00;;
17917;SDS011;9084;50.956;3.106;2023-01-24T08:30:20;19.27;;;16.20;;
17917;SDS011;9084;50.956;3.106;2023-01-24T08:32:48;20.13;;;16.40;;
17917;SDS011;9084;50.956;3.106;2023-01-24T08:35:24;18.93;;;15.80;;
17917;SDS011;9084;50.956;3.106;2023-01-24T08:37:49;17.40;;;15.37;;
17917;SDS011;9084;50.956;3.106;2023-01-24T08:40:15;18.93;;;14.83;;
17917;SDS011;9084;50.956;3.106;2023-01-24T08:42:41;16.40;;;14.77;;
17917;SDS011;9084;50.956;3.106;2023-01-24T08:45:07;18.83;;;13.90;;
17917;SDS011;9084;50.956;3.106;2023-01-24T08:47:36;18.33;;;15.00;;
17917;SDS011;9084;50.956;3.106;2023-01-24T08:50:02;16.30;;;14.07;;
17917;SDS011;9084;50.956;3.106;2023-01-24T08:52:28;16.60;;;13.97;;
17917;SDS011;9084;50.956;3.106;2023-01-24T08:54:54;16.13;;;13.60;;
17917;SDS011;9084;50.956;3.106;2023-01-24T08:57:20;18.00;;;14.30;;
17917;SDS011;9084;50.956;3.106;2023-01-24T08:59:48;18.03;;;14.23;;
17917;SDS011;9084;50.956;3.106;2023-01-24T09:02:14;17.70;;;15.77;;
17917;SDS011;9084;50.956;3.106;2023-01-24T09:04:40;17.20;;;15.17;;
17917;SDS011;9084;50.956;3.106;2023-01-24T09:07:07;16.63;;;14.97;;
17917;SDS011;9084;50.956;3.106;2023-01-24T09:09:34;19.53;;;16.30;;
17917;SDS011;9084;50.956;3.106;2023-01-24T09:12:00;17.67;;;15.90;;
17917;SDS011;9084;50.956;3.106;2023-01-24T09:14:26;17.20;;;15.30;;
17917;SDS011;9084;50.956;3.106;2023-01-24T09:16:52;16.70;;;14.83;;
17917;SDS011;9084;50.956;3.106;2023-01-24T09:19:17;17.57;;;15.60;;
17917;SDS011;9084;50.956;3.106;2023-01-24T09:21:43;15.33;;;13.70;;
17917;SDS011;9084;50.956;3.106;2023-01-24T09:24:11;17.60;;;14.90;;
17917;SDS011;9084;50.956;3.106;2023-01-24T09:26:39;15.20;;;13.60;;
17917;SDS011;9084;50.956;3.106;2023-01-24T09:29:08;15.97;;;13.57;;
17917;SDS011;9084;50.956;3.106;2023-01-24T09:31:36;17.97;;;14.60;;
17917;SDS011;9084;50.956;3.106;2023-01-24T09:34:04;18.70;;;14.93;;
17917;SDS011;9084;50.956;3.106;2023-01-24T09:36:32;15.83;;;13.20;;
17917;SDS011;9084;50.956;3.106;2023-01-24T09:38:58;16.80;;;14.07;;
17917;SDS011;9084;50.956;3.106;2023-01-24T09:43:54;15.33;;;13.43;;
17917;SDS011;9084;50.956;3.106;2023-01-24T09:46:35;16.33;;;13.40;;
17917;SDS011;9084;50.956;3.106;2023-01-24T09:51:35;16.20;;;14.40;;
17917;SDS011;9084;50.956;3.106;2023-01-24T09:54:06;14.90;;;13.30;;
17917;SDS011;9084;50.956;3.106;2023-01-24T09:56:42;16.77;;;15.07;;
17917;SDS011;9084;50.956;3.106;2023-01-24T10:01:49;18.27;;;15.00;;
17917;SDS011;9084;50.956;3.106;2023-01-24T10:04:21;18.60;;;14.73;;
17917;SDS011;9084;50.956;3.106;2023-01-24T10:18:37;18.17;;;15.10;;
17917;SDS011;9084;50.956;3.106;2023-01-24T10:23:54;19.77;;;17.60;;
17917;SDS011;9084;50.956;3.106;2023-01-24T10:29:20;25.77;;;21.33;;
17917;SDS011;9084;50.956;3.106;2023-01-24T10:32:03;25.00;;;21.13;;
17917;SDS011;9084;50.956;3.106;2023-01-24T10:34:43;24.53;;;21.43;;
17917;SDS011;9084;50.956;3.106;2023-01-24T10:37:19;25.87;;;21.20;;
17917;SDS011;9084;50.956;3.106;2023-01-24T10:39:50;25.27;;;21.03;;
17917;SDS011;9084;50.956;3.106;2023-01-24T10:42:26;25.10;;;21.67;;
17917;SDS011;9084;50.956;3.106;2023-01-24T10:44:59;31.30;;;24.10;;
17917;SDS011;9084;50.956;3.106;2023-01-24T10:47:39;29.53;;;22.33;;
17917;SDS011;9084;50.956;3.106;2023-01-24T10:50:22;27.60;;;23.47;;
17917;SDS011;9084;50.956;3.106;2023-01-24T10:52:48;32.47;;;25.57;;
17917;SDS011;9084;50.956;3.106;2023-01-24T10:55:25;33.17;;;24.70;;
17917;SDS011;9084;50.956;3.106;2023-01-24T10:58:25;30.10;;;25.87;;
17917;SDS011;9084;50.956;3.106;2023-01-24T11:00:54;26.50;;;21.17;;
17917;SDS011;9084;50.956;3.106;2023-01-24T11:03:23;25.80;;;21.77;;
17917;SDS011;9084;50.956;3.106;2023-01-24T11:05:59;27.20;;;21.70;;
17917;SDS011;9084;50.956;3.106;2023-01-24T11:08:27;25.77;;;20.90;;
17917;SDS011;9084;50.956;3.106;2023-01-24T11:11:02;27.43;;;23.53;;
17917;SDS011;9084;50.956;3.106;2023-01-24T11:13:42;27.97;;;23.53;;
17917;SDS011;9084;50.956;3.106;2023-01-24T11:19:02;29.13;;;23.87;;
17917;SDS011;9084;50.956;3.106;2023-01-24T11:21:29;30.83;;;25.83;;
17917;SDS011;9084;50.956;3.106;2023-01-24T11:24:07;29.00;;;23.33;;
17917;SDS011;9084;50.956;3.106;2023-01-24T11:26:57;30.23;;;24.20;;
17917;SDS011;9084;50.956;3.106;2023-01-24T11:29:30;28.43;;;23.63;;
17917;SDS011;9084;50.956;3.106;2023-01-24T11:32:03;29.33;;;24.97;;
17917;SDS011;9084;50.956;3.106;2023-01-24T11:34:44;30.37;;;24.73;;
17917;SDS011;9084;50.956;3.106;2023-01-24T11:45:18;28.93;;;23.27;;
17917;SDS011;9084;50.956;3.106;2023-01-24T11:51:00;29.03;;;23.47;;
17917;SDS011;9084;50.956;3.106;2023-01-24T11:53:57;28.73;;;23.17;;
17917;SDS011;9084;50.956;3.106;2023-01-24T11:56:50;31.33;;;28.07;;
17917;SDS011;9084;50.956;3.106;2023-01-24T12:07:41;31.90;;;26.53;;
17917;SDS011;9084;50.956;3.106;2023-01-24T12:13:18;32.90;;;26.47;;
17917;SDS011;9084;50.956;3.106;2023-01-24T12:16:28;33.57;;;29.77;;
17917;SDS011;9084;50.956;3.106;2023-01-24T12:22:05;33.40;;;26.47;;
17917;SDS011;9084;50.956;3.106;2023-01-24T12:24:40;38.50;;;29.03;;
17917;SDS011;9084;50.956;3.106;2023-01-24T12:27:14;32.43;;;25.90;;
17917;SDS011;9084;50.956;3.106;2023-01-24T12:29:55;30.30;;;25.63;;
17917;SDS011;9084;50.956;3.106;2023-01-24T12:35:19;30.17;;;25.03;;
17917;SDS011;9084;50.956;3.106;2023-01-24T12:38:00;34.57;;;25.47;;
17917;SDS011;9084;50.956;3.106;2023-01-24T12:40:53;33.90;;;26.70;;
17917;SDS011;9084;50.956;3.106;2023-01-24T12:43:34;36.33;;;29.70;;
17917;SDS011;9084;50.956;3.106;2023-01-24T12:46:38;37.00;;;31.87;;
17917;SDS011;9084;50.956;3.106;2023-01-24T12:52:17;34.40;;;30.70;;
17917;SDS011;9084;50.956;3.106;2023-01-24T12:54:46;34.23;;;28.47;;
17917;SDS011;9084;50.956;3.106;2023-01-24T13:02:44;35.60;;;28.67;;
17917;SDS011;9084;50.956;3.106;2023-01-24T13:13:30;36.70;;;29.13;;
17917;SDS011;9084;50.956;3.106;2023-01-24T13:19:18;30.50;;;26.73;;
17917;SDS011;9084;50.956;3.106;2023-01-24T13:24:27;30.60;;;27.30;;
17917;SDS011;9084;50.956;3.106;2023-01-24T13:27:24;30.97;;;25.37;;
17917;SDS011;9084;50.956;3.106;2023-01-24T13:29:55;28.70;;;24.17;;
17917;SDS011;9084;50.956;3.106;2023-01-24T13:32:29;27.03;;;24.20;;
17917;SDS011;9084;50.956;3.106;2023-01-24T13:35:00;26.67;;;22.93;;
17917;SDS011;9084;50.956;3.106;2023-01-24T13:37:32;26.80;;;23.93;;
17917;SDS011;9084;50.956;3.106;2023-01-24T13:42:41;28.73;;;25.27;;
17917;SDS011;9084;50.956;3.106;2023-01-24T13:47:54;29.80;;;24.30;;
17917;SDS011;9084;50.956;3.106;2023-01-24T13:50:25;33.47;;;26.67;;
17917;SDS011;9084;50.956;3.106;2023-01-24T13:52:52;30.90;;;26.17;;
17917;SDS011;9084;50.956;3.106;2023-01-24T14:00:22;31.03;;;26.37;;
17917;SDS011;9084;50.956;3.106;2023-01-24T14:03:00;28.30;;;24.30;;
17917;SDS011;9084;50.956;3.106;2023-01-24T14:08:02;29.37;;;25.53;;
17917;SDS011;9084;50.956;3.106;2023-01-24T14:10:50;38.00;;;33.93;;
17917;SDS011;9084;50.956;3.106;2023-01-24T14:21:47;32.43;;;27.00;;
17917;SDS011;9084;50.956;3.106;2023-01-24T14:25:14;37.73;;;32.00;;
17917;SDS011;9084;50.956;3.106;2023-01-24T14:27:36;38.30;;;33.83;;
17917;SDS011;9084;50.956;3.106;2023-01-24T14:32:51;40.20;;;33.33;;
17917;SDS011;9084;50.956;3.106;2023-01-24T14:35:37;60.70;;;54.83;;
17917;SDS011;9084;50.956;3.106;2023-01-24T14:38:18;42.73;;;38.03;;
17917;SDS011;9084;50.956;3.106;2023-01-24T14:40:44;38.73;;;34.37;;
17917;SDS011;9084;50.956;3.106;2023-01-24T14:43:15;35.63;;;31.20;;
17917;SDS011;9084;50.956;3.106;2023-01-24T14:45:41;34.00;;;29.57;;
17917;SDS011;9084;50.956;3.106;2023-01-24T14:48:08;32.63;;;26.90;;
17917;SDS011;9084;50.956;3.106;2023-01-24T14:50:41;36.70;;;31.37;;
17917;SDS011;9084;50.956;3.106;2023-01-24T14:55:54;32.47;;;28.60;;
17917;SDS011;9084;50.956;3.106;2023-01-24T14:58:26;33.57;;;29.07;;
17917;SDS011;9084;50.956;3.106;2023-01-24T15:00:55;31.03;;;27.53;;
17917;SDS011;9084;50.956;3.106;2023-01-24T15:03:24;30.07;;;26.73;;
17917;SDS011;9084;50.956;3.106;2023-01-24T15:05:57;32.97;;;27.47;;
17917;SDS011;9084;50.956;3.106;2023-01-24T15:08:25;32.40;;;28.40;;
17917;SDS011;9084;50.956;3.106;2023-01-24T15:10:52;34.13;;;28.33;;
17917;SDS011;9084;50.956;3.106;2023-01-24T15:13:31;32.57;;;27.90;;
17917;SDS011;9084;50.956;3.106;2023-01-24T15:16:00;35.87;;;28.57;;
17917;SDS011;9084;50.956;3.106;2023-01-24T15:18:43;33.40;;;29.77;;
17917;SDS011;9084;50.956;3.106;2023-01-24T15:21:18;33.73;;;28.90;;
17917;SDS011;9084;50.956;3.106;2023-01-24T15:23:50;33.23;;;28.37;;
17917;SDS011;9084;50.956;3.106;2023-01-24T15:26:32;32.90;;;27.17;;
17917;SDS011;9084;50.956;3.106;2023-01-24T15:32:50;35.97;;;28.47;;
17917;SDS011;9084;50.956;3.106;2023-01-24T15:40:36;34.93;;;28.93;;
17917;SDS011;9084;50.956;3.106;2023-01-24T15:43:15;33.33;;;29.83;;
17917;SDS011;9084;50.956;3.106;2023-01-24T15:49:31;67.80;;;60.90;;
17917;SDS011;9084;50.956;3.106;2023-01-24T15:54:37;40.67;;;34.73;;
17917;SDS011;9084;50.956;3.106;2023-01-24T15:59:47;35.80;;;30.67;;
17917;SDS011;9084;50.956;3.106;2023-01-24T16:02:16;47.85;;;43.55;;
17917;SDS011;9084;50.956;3.106;2023-01-24T16:04:42;39.50;;;33.97;;
17917;SDS011;9084;50.956;3.106;2023-01-24T16:07:12;39.60;;;35.30;;
17917;SDS011;9084;50.956;3.106;2023-01-24T16:09:43;37.03;;;32.97;;
17917;SDS011;9084;50.956;3.106;2023-01-24T16:12:10;36.00;;;29.80;;
17917;SDS011;9084;50.956;3.106;2023-01-24T16:14:45;40.63;;;31.70;;
17917;SDS011;9084;50.956;3.106;2023-01-24T16:17:13;37.20;;;30.97;;
17917;SDS011;9084;50.956;3.106;2023-01-24T16:19:43;37.23;;;30.03;;
17917;SDS011;9084;50.956;3.106;2023-01-24T16:22:09;35.50;;;27.93;;
17917;SDS011;9084;50.956;3.106;2023-01-24T16:24:35;36.07;;;29.10;;
17917;SDS011;9084;50.956;3.106;2023-01-24T16:27:01;35.00;;;28.07;;
17917;SDS011;9084;50.956;3.106;2023-01-24T16:29:28;34.83;;;26.90;;
17917;SDS011;9084;50.956;3.106;2023-01-24T16:31:57;34.23;;;28.30;;
17917;SDS011;9084;50.956;3.106;2023-01-24T16:34:23;35.67;;;29.20;;
17917;SDS011;9084;50.956;3.106;2023-01-24T16:36:49;37.07;;;29.47;;
17917;SDS011;9084;50.956;3.106;2023-01-24T16:39:19;37.70;;;28.87;;
17917;SDS011;9084;50.956;3.106;2023-01-24T16:41:47;38.20;;;29.30;;
17917;SDS011;9084;50.956;3.106;2023-01-24T16:44:14;35.93;;;28.90;;
17917;SDS011;9084;50.956;3.106;2023-01-24T16:46:50;37.53;;;26.93;;
17917;SDS011;9084;50.956;3.106;2023-01-24T16:49:16;33.57;;;26.80;;
17917;SDS011;9084;50.956;3.106;2023-01-24T16:51:45;36.87;;;27.33;;
17917;SDS011;9084;50.956;3.106;2023-01-24T16:54:14;33.33;;;27.40;;
17917;SDS011;9084;50.956;3.106;2023-01-24T16:56:40;37.70;;;29.10;;
17917;SDS011;9084;50.956;3.106;2023-01-24T16:59:07;34.43;;;28.47;;
17917;SDS011;9084;50.956;3.106;2023-01-24T17:01:33;34.40;;;26.73;;
17917;SDS011;9084;50.956;3.106;2023-01-24T17:04:00;38.70;;;31.10;;
17917;SDS011;9084;50.956;3.106;2023-01-24T17:06:27;37.63;;;27.27;;
17917;SDS011;9084;50.956;3.106;2023-01-24T17:08:53;45.23;;;40.47;;
17917;SDS011;9084;50.956;3.106;2023-01-24T17:11:19;41.03;;;36.77;;
17917;SDS011;9084;50.956;3.106;2023-01-24T17:13:47;33.37;;;29.43;;
17917;SDS011;9084;50.956;3.106;2023-01-24T17:16:14;32.90;;;29.33;;
17917;SDS011;9084;50.956;3.106;2023-01-24T17:18:40;29.97;;;25.27;;